Hydro, Oklahoma
Current Conditions -  °F | °C
As of 1:35 AM on Sunday 23 Nov 2014 (Local Time) from KOJA Reporting Station
Haze Haze  
Wind Chill: 50°   Ceiling: 300
Heat Index: 50°   Visibility: 2mi
Dew Point: 50°   Wind: 14mph
Humidity: 100%   Direction: 200°SSW
Pressure: 29.58"   Gusts: 20mph
Location:  35.55°N, 98.58°W
Report Text: KOJA 230735Z AUTO 20012G17KT 2SM BR OVC003 10/10 A2958 RMK AO2
Loading
Personal Weather Stations






























Interactive Weather Map New forecast layout! Learn more

10-Day Weather Forecast

Advertisements
Track Severe Weather on mobile